M C B H Kaneohe Bay, Hawaii
Current Conditions -  °F | °C
As of 10:57 PM on Saturday 22 Nov 2014 (Local Time) from PHNG Reporting Station
Few Clouds Few Clouds  
Wind Chill: 77°   Ceiling: Unl
Heat Index: 79°   Visibility: 10mi
Dew Point: 69°   Wind: 8mph
Humidity: 76%   Direction: 100°E
Pressure: 30.05"   Gusts: NA
Location:  21.4527°N, 157.772°W
Report Text: PHNG 230857Z 10007KT 10SM FEW039 25/21 A3005 RMK AO2 SLP169 T02500206 50000 $
Loading
Personal Weather Stations






























Interactive Weather Map New forecast layout! Learn more

10-Day Weather Forecast

Advertisements
Track Severe Weather on mobile